sensor_id;sensor_type;location;lat;lon;timestamp;pressure;altitude;pressure_sealevel;temperature;humidity
74633;BME280;63139;52.018;8.552;2023-11-21T00:01:17;99979.00;;;8.76;100.00
74633;BME280;63139;52.018;8.552;2023-11-21T00:03:44;99982.13;;;8.80;100.00
74633;BME280;63139;52.018;8.552;2023-11-21T00:06:12;99982.78;;;8.82;100.00
74633;BME280;63139;52.018;8.552;2023-11-21T00:08:41;99979.97;;;8.83;100.00
74633;BME280;63139;52.018;8.552;2023-11-21T00:11:10;99978.66;;;8.87;100.00
74633;BME280;63139;52.018;8.552;2023-11-21T00:13:38;99978.13;;;8.92;100.00
74633;BME280;63139;52.018;8.552;2023-11-21T00:16:06;99979.47;;;8.96;100.00
74633;BME280;63139;52.018;8.552;2023-11-21T00:18:35;99980.28;;;8.97;100.00
74633;BME280;63139;52.018;8.552;2023-11-21T00:21:03;99985.19;;;9.00;100.00
74633;BME280;63139;52.018;8.552;2023-11-21T00:23:30;99984.22;;;9.01;100.00
74633;BME280;63139;52.018;8.552;2023-11-21T00:25:58;99988.34;;;9.03;100.00
74633;BME280;63139;52.018;8.552;2023-11-21T00:28:27;99987.31;;;9.04;100.00
74633;BME280;63139;52.018;8.552;2023-11-21T00:30:56;99991.63;;;9.05;100.00
74633;BME280;63139;52.018;8.552;2023-11-21T00:33:24;99996.72;;;9.07;100.00
74633;BME280;63139;52.018;8.552;2023-11-21T00:35:54;99996.72;;;9.07;100.00
74633;BME280;63139;52.018;8.552;2023-11-21T00:38:21;99998.22;;;9.09;100.00
74633;BME280;63139;52.018;8.552;2023-11-21T00:40:50;99998.06;;;9.11;100.00
74633;BME280;63139;52.018;8.552;2023-11-21T00:43:19;99999.50;;;9.13;100.00
74633;BME280;63139;52.018;8.552;2023-11-21T00:45:49;99995.72;;;9.16;100.00
74633;BME280;63139;52.018;8.552;2023-11-21T00:48:17;99993.91;;;9.16;100.00
74633;BME280;63139;52.018;8.552;2023-11-21T00:50:45;99996.38;;;9.18;100.00
74633;BME280;63139;52.018;8.552;2023-11-21T00:53:14;99996.19;;;9.19;100.00
74633;BME280;63139;52.018;8.552;2023-11-21T00:55:41;99996.19;;;9.19;100.00
74633;BME280;63139;52.018;8.552;2023-11-21T00:58:10;99994.38;;;9.20;100.00
74633;BME280;63139;52.018;8.552;2023-11-21T01:00:38;99991.56;;;9.21;100.00
74633;BME280;63139;52.018;8.552;2023-11-21T01:03:08;99993.72;;;9.18;100.00
74633;BME280;63139;52.018;8.552;2023-11-21T01:05:36;99994.72;;;9.17;100.00
74633;BME280;63139;52.018;8.552;2023-11-21T01:08:04;100000.63;;;9.19;100.00
74633;BME280;63139;52.018;8.552;2023-11-21T01:10:32;100013.06;;;9.18;100.00
74633;BME280;63139;52.018;8.552;2023-11-21T01:13:00;100007.78;;;9.18;100.00
74633;BME280;63139;52.018;8.552;2023-11-21T01:15:28;100016.47;;;9.19;100.00
74633;BME280;63139;52.018;8.552;2023-11-21T01:17:56;100024.25;;;9.20;100.00
74633;BME280;63139;52.018;8.552;2023-11-21T01:20:25;100017.16;;;9.21;100.00
74633;BME280;63139;52.018;8.552;2023-11-21T01:22:53;100021.59;;;9.20;100.00
74633;BME280;63139;52.018;8.552;2023-11-21T01:25:21;100020.63;;;9.21;100.00
74633;BME280;63139;52.018;8.552;2023-11-21T01:27:49;100018.78;;;9.22;100.00
74633;BME280;63139;52.018;8.552;2023-11-21T01:30:17;100016.16;;;9.22;100.00
74633;BME280;63139;52.018;8.552;2023-11-21T01:32:46;100026.56;;;9.23;100.00
74633;BME280;63139;52.018;8.552;2023-11-21T01:35:14;100029.19;;;9.23;100.00
74633;BME280;63139;52.018;8.552;2023-11-21T01:37:43;100023.75;;;9.25;100.00
74633;BME280;63139;52.018;8.552;2023-11-21T01:40:11;100028.03;;;9.26;100.00
74633;BME280;63139;52.018;8.552;2023-11-21T01:42:41;100024.56;;;9.25;100.00
74633;BME280;63139;52.018;8.552;2023-11-21T01:45:10;100026.41;;;9.25;100.00
74633;BME280;63139;52.018;8.552;2023-11-21T01:47:40;100025.41;;;9.26;100.00
74633;BME280;63139;52.018;8.552;2023-11-21T01:50:12;100020.13;;;9.26;100.00
74633;BME280;63139;52.018;8.552;2023-11-21T01:52:42;100024.38;;;9.27;100.00
74633;BME280;63139;52.018;8.552;2023-11-21T01:55:11;100021.56;;;9.28;100.00
74633;BME280;63139;52.018;8.552;2023-11-21T01:57:53;100018.28;;;9.26;100.00
74633;BME280;63139;52.018;8.552;2023-11-21T02:00:22;100012.00;;;9.27;100.00
74633;BME280;63139;52.018;8.552;2023-11-21T02:02:51;100019.09;;;9.27;100.00
74633;BME280;63139;52.018;8.552;2023-11-21T02:05:19;100013.81;;;9.27;100.00
74633;BME280;63139;52.018;8.552;2023-11-21T02:07:50;100015.81;;;9.25;100.00
74633;BME280;63139;52.018;8.552;2023-11-21T02:10:19;100017.47;;;9.26;100.00
74633;BME280;63139;52.018;8.552;2023-11-21T02:12:51;100021.09;;;9.25;100.00
74633;BME280;63139;52.018;8.552;2023-11-21T02:15:20;100016.81;;;9.24;100.00
74633;BME280;63139;52.018;8.552;2023-11-21T02:17:49;100019.28;;;9.25;100.00
74633;BME280;63139;52.018;8.552;2023-11-21T02:20:20;100028.53;;;9.21;100.00
74633;BME280;63139;52.018;8.552;2023-11-21T02:22:51;100040.75;;;9.22;100.00
74633;BME280;63139;52.018;8.552;2023-11-21T02:25:22;100036.47;;;9.21;100.00
74633;BME280;63139;52.018;8.552;2023-11-21T02:27:50;100047.19;;;9.20;100.00
74633;BME280;63139;52.018;8.552;2023-11-21T02:30:18;100049.00;;;9.19;100.00
74633;BME280;63139;52.018;8.552;2023-11-21T02:32:46;100056.94;;;9.19;100.00
74633;BME280;63139;52.018;8.552;2023-11-21T02:35:15;100056.94;;;9.19;100.00
74633;BME280;63139;52.018;8.552;2023-11-21T02:37:43;100057.75;;;9.20;100.00
74633;BME280;63139;52.018;8.552;2023-11-21T02:40:13;100064.53;;;9.22;100.00
74633;BME280;63139;52.018;8.552;2023-11-21T02:42:44;100064.53;;;9.22;100.00
74633;BME280;63139;52.018;8.552;2023-11-21T02:45:13;100058.09;;;9.25;100.00
74633;BME280;63139;52.018;8.552;2023-11-21T02:47:44;100062.53;;;9.24;100.00
74633;BME280;63139;52.018;8.552;2023-11-21T02:50:13;100053.63;;;9.25;100.00
74633;BME280;63139;52.018;8.552;2023-11-21T02:52:41;100054.47;;;9.26;100.00
74633;BME280;63139;52.018;8.552;2023-11-21T02:55:09;100057.72;;;9.28;100.00
74633;BME280;63139;52.018;8.552;2023-11-21T02:57:38;100061.84;;;9.30;100.00
74633;BME280;63139;52.018;8.552;2023-11-21T03:00:07;100064.34;;;9.32;100.00
74633;BME280;63139;52.018;8.552;2023-11-21T03:02:36;100064.16;;;9.33;100.00
74633;BME280;63139;52.018;8.552;2023-11-21T03:05:07;100074.22;;;9.38;100.00
74633;BME280;63139;52.018;8.552;2023-11-21T03:07:36;100068.78;;;9.40;100.00
74633;BME280;63139;52.018;8.552;2023-11-21T03:10:05;100066.97;;;9.40;100.00
74633;BME280;63139;52.018;8.552;2023-11-21T03:12:36;100071.06;;;9.43;100.00
74633;BME280;63139;52.018;8.552;2023-11-21T03:15:07;100074.19;;;9.46;100.00
74633;BME280;63139;52.018;8.552;2023-11-21T03:17:36;100075.19;;;9.45;100.00
74633;BME280;63139;52.018;8.552;2023-11-21T03:20:05;100068.75;;;9.48;100.00
74633;BME280;63139;52.018;8.552;2023-11-21T03:22:37;100069.38;;;9.50;100.00
74633;BME280;63139;52.018;8.552;2023-11-21T03:25:06;100071.84;;;9.51;100.00
74633;BME280;63139;52.018;8.552;2023-11-21T03:27:37;100077.97;;;9.52;100.00
74633;BME280;63139;52.018;8.552;2023-11-21T03:30:09;100083.41;;;9.50;100.00
74633;BME280;63139;52.018;8.552;2023-11-21T03:32:37;100085.88;;;9.52;100.00
74633;BME280;63139;52.018;8.552;2023-11-21T03:35:06;100090.19;;;9.53;100.00
74633;BME280;63139;52.018;8.552;2023-11-21T03:37:34;100089.34;;;9.52;100.00
74633;BME280;63139;52.018;8.552;2023-11-21T03:40:02;100093.50;;;9.55;100.00
74633;BME280;63139;52.018;8.552;2023-11-21T03:42:30;100091.00;;;9.53;100.00
74633;BME280;63139;52.018;8.552;2023-11-21T03:44:58;100094.47;;;9.54;100.00
74633;BME280;63139;52.018;8.552;2023-11-21T03:47:28;100101.59;;;9.53;100.00
74633;BME280;63139;52.018;8.552;2023-11-21T03:49:56;100101.22;;;9.56;100.00
74633;BME280;63139;52.018;8.552;2023-11-21T03:52:23;100108.16;;;9.57;100.00
74633;BME280;63139;52.018;8.552;2023-11-21T03:54:51;100104.88;;;9.55;100.00
74633;BME280;63139;52.018;8.552;2023-11-21T03:57:19;100109.97;;;9.57;100.00
74633;BME280;63139;52.018;8.552;2023-11-21T03:59:47;100108.16;;;9.57;100.00
74633;BME280;63139;52.018;8.552;2023-11-21T04:02:15;100107.34;;;9.57;100.00
74633;BME280;63139;52.018;8.552;2023-11-21T04:04:45;100104.69;;;9.57;100.00
74633;BME280;63139;52.018;8.552;2023-11-21T04:07:13;100124.69;;;9.59;100.00
74633;BME280;63139;52.018;8.552;2023-11-21T04:09:41;100122.19;;;9.58;100.00
74633;BME280;63139;52.018;8.552;2023-11-21T04:12:08;100118.72;;;9.57;100.00
74633;BME280;63139;52.018;8.552;2023-11-21T04:14:36;100124.84;;;9.58;100.00
74633;BME280;63139;52.018;8.552;2023-11-21T04:17:04;100132.78;;;9.58;100.00
74633;BME280;63139;52.018;8.552;2023-11-21T04:19:32;100125.00;;;9.56;100.00
74633;BME280;63139;52.018;8.552;2023-11-21T04:22:02;100124.69;;;9.51;100.00
74633;BME280;63139;52.018;8.552;2023-11-21T04:24:30;100136.44;;;9.49;100.00
74633;BME280;63139;52.018;8.552;2023-11-21T04:26:58;100135.13;;;9.45;100.00
74633;BME280;63139;52.018;8.552;2023-11-21T04:29:26;100137.28;;;9.41;100.00
74633;BME280;63139;52.018;8.552;2023-11-21T04:31:54;100143.06;;;9.37;100.00
74633;BME280;63139;52.018;8.552;2023-11-21T04:34:22;100136.50;;;9.32;100.00
74633;BME280;63139;52.018;8.552;2023-11-21T04:36:50;100140.28;;;9.30;100.00
74633;BME280;63139;52.018;8.552;2023-11-21T04:39:19;100137.97;;;9.27;100.00
74633;BME280;63139;52.018;8.552;2023-11-21T04:41:47;100143.59;;;9.24;100.00
74633;BME280;63139;52.018;8.552;2023-11-21T04:44:15;100151.03;;;9.20;100.00
74633;BME280;63139;52.018;8.552;2023-11-21T04:46:43;100146.91;;;9.18;100.00
74633;BME280;63139;52.018;8.552;2023-11-21T04:49:11;100158.47;;;9.17;100.00
74633;BME280;63139;52.018;8.552;2023-11-21T04:51:39;100157.81;;;9.15;100.00
74633;BME280;63139;52.018;8.552;2023-11-21T04:54:07;100160.59;;;9.13;100.00
74633;BME280;63139;52.018;8.552;2023-11-21T04:56:37;100169.88;;;9.09;100.00
74633;BME280;63139;52.018;8.552;2023-11-21T04:59:04;100168.53;;;9.05;100.00
74633;BME280;63139;52.018;8.552;2023-11-21T05:01:32;100168.72;;;9.04;100.00
74633;BME280;63139;52.018;8.552;2023-11-21T05:04:00;100158.31;;;9.02;100.00
74633;BME280;63139;52.018;8.552;2023-11-21T05:06:28;100163.59;;;9.02;100.00
74633;BME280;63139;52.018;8.552;2023-11-21T05:08:56;100162.09;;;9.00;100.00
74633;BME280;63139;52.018;8.552;2023-11-21T05:11:25;100160.59;;;8.97;100.00
74633;BME280;63139;52.018;8.552;2023-11-21T05:13:54;100155.00;;;8.92;100.00
74633;BME280;63139;52.018;8.552;2023-11-21T05:16:25;100167.38;;;8.91;100.00
74633;BME280;63139;52.018;8.552;2023-11-21T05:18:54;100166.72;;;8.89;100.00
74633;BME280;63139;52.018;8.552;2023-11-21T05:21:27;100166.91;;;8.88;100.00
74633;BME280;63139;52.018;8.552;2023-11-21T05:23:56;100166.25;;;8.86;100.00
74633;BME280;63139;52.018;8.552;2023-11-21T05:26:24;100165.56;;;8.84;100.00
74633;BME280;63139;52.018;8.552;2023-11-21T05:28:52;100167.38;;;8.83;100.00
74633;BME280;63139;52.018;8.552;2023-11-21T05:31:21;100170.03;;;8.83;100.00
74633;BME280;63139;52.018;8.552;2023-11-21T05:33:49;100175.47;;;8.82;100.00
74633;BME280;63139;52.018;8.552;2023-11-21T05:36:17;100172.19;;;8.80;100.00
74633;BME280;63139;52.018;8.552;2023-11-21T05:38:44;100177.31;;;8.81;100.00
74633;BME280;63139;52.018;8.552;2023-11-21T05:41:12;100170.19;;;8.82;100.00
74633;BME280;63139;52.018;8.552;2023-11-21T05:43:40;100181.56;;;8.82;100.00
74633;BME280;63139;52.018;8.552;2023-11-21T05:46:08;100174.66;;;8.81;100.00
74633;BME280;63139;52.018;8.552;2023-11-21T05:48:38;100179.13;;;8.81;100.00
74633;BME280;63139;52.018;8.552;2023-11-21T05:51:06;100190.50;;;8.81;100.00
74633;BME280;63139;52.018;8.552;2023-11-21T05:53:35;100191.47;;;8.80;100.00
74633;BME280;63139;52.018;8.552;2023-11-21T05:56:03;100201.06;;;8.81;100.00
74633;BME280;63139;52.018;8.552;2023-11-21T05:58:31;100193.94;;;8.82;100.00
74633;BME280;63139;52.018;8.552;2023-11-21T06:00:59;100193.13;;;8.81;100.00
74633;BME280;63139;52.018;8.552;2023-11-21T06:03:28;100195.59;;;8.83;100.00
74633;BME280;63139;52.018;8.552;2023-11-21T06:05:58;100210.44;;;8.84;100.00
74633;BME280;63139;52.018;8.552;2023-11-21T06:08:26;100206.81;;;8.85;100.00
74633;BME280;63139;52.018;8.552;2023-11-21T06:10:54;100216.41;;;8.86;100.00
74633;BME280;63139;52.018;8.552;2023-11-21T06:13:22;100219.84;;;8.86;100.00
74633;BME280;63139;52.018;8.552;2023-11-21T06:15:51;100218.03;;;8.87;100.00
74633;BME280;63139;52.018;8.552;2023-11-21T06:18:19;100224.63;;;8.91;100.00
74633;BME280;63139;52.018;8.552;2023-11-21T06:20:47;100226.28;;;8.92;100.00
74633;BME280;63139;52.018;8.552;2023-11-21T06:23:16;100231.56;;;8.92;100.00
74633;BME280;63139;52.018;8.552;2023-11-21T06:25:44;100237.53;;;8.94;100.00
74633;BME280;63139;52.018;8.552;2023-11-21T06:28:12;100242.47;;;8.97;100.00
74633;BME280;63139;52.018;8.552;2023-11-21T06:30:44;100239.81;;;8.97;100.00
74633;BME280;63139;52.018;8.552;2023-11-21T06:33:12;100251.06;;;8.99;100.00
74633;BME280;63139;52.018;8.552;2023-11-21T06:35:40;100247.75;;;8.97;100.00
74633;BME280;63139;52.018;8.552;2023-11-21T06:38:08;100251.72;;;9.01;100.00
74633;BME280;63139;52.018;8.552;2023-11-21T06:40:37;100264.75;;;9.03;100.00
74633;BME280;63139;52.018;8.552;2023-11-21T06:43:05;100267.06;;;9.06;100.00
74633;BME280;63139;52.018;8.552;2023-11-21T06:45:33;100273.16;;;9.06;100.00
74633;BME280;63139;52.018;8.552;2023-11-21T06:48:01;100268.72;;;9.07;100.00
74633;BME280;63139;52.018;8.552;2023-11-21T06:50:30;100280.78;;;9.09;100.00
74633;BME280;63139;52.018;8.552;2023-11-21T06:52:57;100280.63;;;9.11;100.00
74633;BME280;63139;52.018;8.552;2023-11-21T06:55:25;100282.91;;;9.14;100.00
74633;BME280;63139;52.018;8.552;2023-11-21T06:57:55;100289.69;;;9.16;100.00
74633;BME280;63139;52.018;8.552;2023-11-21T07:00:24;100289.34;;;9.19;100.00
74633;BME280;63139;52.018;8.552;2023-11-21T07:02:52;100292.81;;;9.20;100.00
74633;BME280;63139;52.018;8.552;2023-11-21T07:05:21;100296.13;;;9.22;100.00
74633;BME280;63139;52.018;8.552;2023-11-21T07:07:50;100305.72;;;9.23;100.00
74633;BME280;63139;52.018;8.552;2023-11-21T07:10:21;100304.06;;;9.22;100.00
74633;BME280;63139;52.018;8.552;2023-11-21T07:12:48;100305.41;;;9.26;100.00
74633;BME280;63139;52.018;8.552;2023-11-21T07:15:19;100306.03;;;9.28;100.00
74633;BME280;63139;52.018;8.552;2023-11-21T07:17:47;100305.88;;;9.29;100.00
74633;BME280;63139;52.018;8.552;2023-11-21T07:20:15;100311.00;;;9.31;100.00
74633;BME280;63139;52.018;8.552;2023-11-21T07:22:44;100321.22;;;9.34;100.00
74633;BME280;63139;52.018;8.552;2023-11-21T07:25:12;100324.38;;;9.38;100.00
74633;BME280;63139;52.018;8.552;2023-11-21T07:27:40;100325.88;;;9.40;100.00
74633;BME280;63139;52.018;8.552;2023-11-21T07:30:09;100323.88;;;9.42;100.00
74633;BME280;63139;52.018;8.552;2023-11-21T07:32:38;100328.03;;;9.45;100.00
74633;BME280;63139;52.018;8.552;2023-11-21T07:35:08;100340.25;;;9.46;100.00
74633;BME280;63139;52.018;8.552;2023-11-21T07:37:36;100333.81;;;9.48;100.00
74633;BME280;63139;52.018;8.552;2023-11-21T07:40:05;100344.88;;;9.52;100.00
74633;BME280;63139;52.018;8.552;2023-11-21T07:42:35;100353.47;;;9.54;100.00
74633;BME280;63139;52.018;8.552;2023-11-21T07:45:05;100351.66;;;9.54;100.00
74633;BME280;63139;52.018;8.552;2023-11-21T07:47:33;100362.53;;;9.51;100.00
74633;BME280;63139;52.018;8.552;2023-11-21T07:50:04;100355.13;;;9.47;100.00
74633;BME280;63139;52.018;8.552;2023-11-21T07:52:32;100354.13;;;9.48;100.00
74633;BME280;63139;52.018;8.552;2023-11-21T07:55:00;100352.31;;;9.48;100.00
74633;BME280;63139;52.018;8.552;2023-11-21T07:57:28;100356.59;;;9.49;100.00
74633;BME280;63139;52.018;8.552;2023-11-21T07:59:56;100367.00;;;9.43;100.00
74633;BME280;63139;52.018;8.552;2023-11-21T08:02:24;100367.97;;;9.42;100.00
74633;BME280;63139;52.018;8.552;2023-11-21T08:04:52;100364.69;;;9.40;100.00
74633;BME280;63139;52.018;8.552;2023-11-21T08:07:22;100370.13;;;9.38;100.00
74633;BME280;63139;52.018;8.552;2023-11-21T08:09:50;100372.63;;;9.40;100.00
74633;BME280;63139;52.018;8.552;2023-11-21T08:12:18;100375.25;;;9.40;100.00
74633;BME280;63139;52.018;8.552;2023-11-21T08:14:46;100380.19;;;9.43;100.00
74633;BME280;63139;52.018;8.552;2023-11-21T08:17:14;100375.75;;;9.43;100.00
74633;BME280;63139;52.018;8.552;2023-11-21T08:19:44;100381.03;;;9.43;100.00
74633;BME280;63139;52.018;8.552;2023-11-21T08:22:16;100375.59;;;9.45;100.00
74633;BME280;63139;52.018;8.552;2023-11-21T08:24:45;100387.47;;;9.49;100.00
74633;BME280;63139;52.018;8.552;2023-11-21T08:27:13;100395.06;;;9.44;100.00
74633;BME280;63139;52.018;8.552;2023-11-21T08:29:42;100390.78;;;9.43;100.00
74633;BME280;63139;52.018;8.552;2023-11-21T08:32:10;100396.88;;;9.43;100.00
74633;BME280;63139;52.018;8.552;2023-11-21T08:34:38;100402.16;;;9.43;100.00
74633;BME280;63139;52.018;8.552;2023-11-21T08:37:07;100407.28;;;9.45;100.00
74633;BME280;63139;52.018;8.552;2023-11-21T08:39:36;100411.59;;;9.46;100.00
74633;BME280;63139;52.018;8.552;2023-11-21T08:42:05;100420.19;;;9.48;100.00
74633;BME280;63139;52.018;8.552;2023-11-21T08:44:34;100420.00;;;9.49;100.00
74633;BME280;63139;52.018;8.552;2023-11-21T08:47:03;100423.47;;;9.50;100.00
74633;BME280;63139;52.018;8.552;2023-11-21T08:49:34;100427.28;;;9.47;100.00
74633;BME280;63139;52.018;8.552;2023-11-21T08:52:02;100430.59;;;9.49;100.00
74633;BME280;63139;52.018;8.552;2023-11-21T08:54:32;100442.31;;;9.47;100.00
74633;BME280;63139;52.018;8.552;2023-11-21T08:57:01;100442.31;;;9.47;100.00
74633;BME280;63139;52.018;8.552;2023-11-21T08:59:30;100450.88;;;9.49;100.00
74633;BME280;63139;52.018;8.552;2023-11-21T09:01:58;100447.91;;;9.44;100.00
74633;BME280;63139;52.018;8.552;2023-11-21T09:04:26;100453.72;;;9.47;100.00
74633;BME280;63139;52.018;8.552;2023-11-21T09:06:54;100456.38;;;9.47;100.00
74633;BME280;63139;52.018;8.552;2023-11-21T09:09:22;100458.19;;;9.47;100.00
74633;BME280;63139;52.018;8.552;2023-11-21T09:11:51;100463.47;;;9.47;100.00
74633;BME280;63139;52.018;8.552;2023-11-21T09:14:19;100467.91;;;9.38;100.00
74633;BME280;63139;52.018;8.552;2023-11-21T09:16:48;100472.00;;;9.32;100.00
74633;BME280;63139;52.018;8.552;2023-11-21T09:19:17;100467.22;;;9.36;100.00
74633;BME280;63139;52.018;8.552;2023-11-21T09:21:45;100471.81;;;9.34;100.00
74633;BME280;63139;52.018;8.552;2023-11-21T09:24:12;100477.91;;;9.26;100.00
74633;BME280;63139;52.018;8.552;2023-11-21T09:26:40;100475.44;;;9.25;100.00
74633;BME280;63139;52.018;8.552;2023-11-21T09:29:08;100479.09;;;9.32;100.00
74633;BME280;63139;52.018;8.552;2023-11-21T09:31:36;100485.03;;;9.26;100.00
74633;BME280;63139;52.018;8.552;2023-11-21T09:34:06;100486.47;;;9.20;100.00
74633;BME280;63139;52.018;8.552;2023-11-21T09:36:34;100499.41;;;9.31;100.00
74633;BME280;63139;52.018;8.552;2023-11-21T09:39:04;100485.22;;;9.32;100.00
74633;BME280;63139;52.018;8.552;2023-11-21T09:41:42;100497.59;;;9.32;100.00
74633;BME280;63139;52.018;8.552;2023-11-21T09:44:13;100496.97;;;9.38;100.00
74633;BME280;63139;52.018;8.552;2023-11-21T09:46:42;100506.03;;;9.35;100.00
74633;BME280;63139;52.018;8.552;2023-11-21T09:49:13;100505.53;;;9.32;100.00
74633;BME280;63139;52.018;8.552;2023-11-21T09:51:42;100506.66;;;9.29;100.00
74633;BME280;63139;52.018;8.552;2023-11-21T09:54:11;100517.97;;;9.14;100.00
74633;BME280;63139;52.018;8.552;2023-11-21T09:56:40;100514.06;;;9.18;100.00
74633;BME280;63139;52.018;8.552;2023-11-21T09:59:13;100527.56;;;9.15;100.00
74633;BME280;63139;52.018;8.552;2023-11-21T10:01:42;100534.66;;;9.14;100.00
74633;BME280;63139;52.018;8.552;2023-11-21T10:04:13;100533.59;;;8.99;100.00
74633;BME280;63139;52.018;8.552;2023-11-21T10:06:43;100538.88;;;8.99;100.00
74633;BME280;63139;52.018;8.552;2023-11-21T10:09:13;100544.69;;;9.03;100.00
74633;BME280;63139;52.018;8.552;2023-11-21T10:11:42;100545.81;;;9.00;100.00
74633;BME280;63139;52.018;8.552;2023-11-21T10:14:11;100552.13;;;9.07;100.00
74633;BME280;63139;52.018;8.552;2023-11-21T10:16:41;100560.72;;;8.83;100.00
74633;BME280;63139;52.018;8.552;2023-11-21T10:19:15;100556.88;;;8.78;100.00
74633;BME280;63139;52.018;8.552;2023-11-21T10:21:43;100559.59;;;8.86;100.00
74633;BME280;63139;52.018;8.552;2023-11-21T10:24:11;100557.63;;;8.88;100.00
74633;BME280;63139;52.018;8.552;2023-11-21T10:26:39;100561.94;;;8.89;100.00
74633;BME280;63139;52.018;8.552;2023-11-21T10:29:18;100553.69;;;8.92;100.00
74633;BME280;63139;52.018;8.552;2023-11-21T10:31:49;100557.50;;;8.98;100.00
74633;BME280;63139;52.018;8.552;2023-11-21T10:34:20;100556.22;;;9.02;100.00
74633;BME280;63139;52.018;8.552;2023-11-21T10:36:48;100563.81;;;9.05;100.00
74633;BME280;63139;52.018;8.552;2023-11-21T10:39:16;100563.31;;;9.01;100.00
74633;BME280;63139;52.018;8.552;2023-11-21T10:41:46;100567.63;;;9.02;100.00
74633;BME280;63139;52.018;8.552;2023-11-21T10:44:15;100566.00;;;9.09;100.00
74633;BME280;63139;52.018;8.552;2023-11-21T10:46:48;100571.78;;;9.13;100.00
74633;BME280;63139;52.018;8.552;2023-11-21T10:49:19;100577.53;;;8.82;100.00
74633;BME280;63139;52.018;8.552;2023-11-21T10:51:48;100567.97;;;8.81;100.00
74633;BME280;63139;52.018;8.552;2023-11-21T10:54:19;100577.53;;;8.82;100.00
74633;BME280;63139;52.018;8.552;2023-11-21T10:56:48;100573.91;;;8.83;100.00
74633;BME280;63139;52.018;8.552;2023-11-21T10:59:18;100580.28;;;8.73;100.00
74633;BME280;63139;52.018;8.552;2023-11-21T11:01:47;100579.25;;;8.66;100.00
74633;BME280;63139;52.018;8.552;2023-11-21T11:04:19;100580.22;;;8.65;100.00
74633;BME280;63139;52.018;8.552;2023-11-21T11:06:51;100582.78;;;8.56;100.00
74633;BME280;63139;52.018;8.552;2023-11-21T11:09:23;100597.53;;;8.67;100.00
74633;BME280;63139;52.018;8.552;2023-11-21T11:11:51;100597.31;;;8.61;100.00
74633;BME280;63139;52.018;8.552;2023-11-21T11:14:20;100603.97;;;8.65;100.00
74633;BME280;63139;52.018;8.552;2023-11-21T11:16:54;100608.19;;;8.57;100.00
74633;BME280;63139;52.018;8.552;2023-11-21T11:19:24;100614.66;;;8.63;100.00
74633;BME280;63139;52.018;8.552;2023-11-21T11:22:00;100611.56;;;8.68;100.00
74633;BME280;63139;52.018;8.552;2023-11-21T11:24:53;100617.53;;;8.70;100.00
74633;BME280;63139;52.018;8.552;2023-11-21T11:27:31;100622.13;;;8.68;100.00
74633;BME280;63139;52.018;8.552;2023-11-21T11:30:12;100629.13;;;8.77;100.00
74633;BME280;63139;52.018;8.552;2023-11-21T11:32:52;100628.31;;;8.76;100.00
74633;BME280;63139;52.018;8.552;2023-11-21T11:35:33;100629.38;;;8.66;100.00
74633;BME280;63139;52.018;8.552;2023-11-21T11:38:02;100640.16;;;8.54;100.00
74633;BME280;63139;52.018;8.552;2023-11-21T11:40:39;100642.50;;;8.57;100.00
74633;BME280;63139;52.018;8.552;2023-11-21T11:43:09;100633.91;;;8.55;100.00
74633;BME280;63139;52.018;8.552;2023-11-21T11:45:37;100629.53;;;8.64;100.00
74633;BME280;63139;52.018;8.552;2023-11-21T11:48:11;100635.94;;;8.79;100.00
74633;BME280;63139;52.018;8.552;2023-11-21T11:51:01;100637.72;;;8.97;100.00
74633;BME280;63139;52.018;8.552;2023-11-21T11:53:35;100638.91;;;9.02;100.00
74633;BME280;63139;52.018;8.552;2023-11-21T11:56:24;100654.47;;;8.87;100.00
74633;BME280;63139;52.018;8.552;2023-11-21T11:58:54;100640.16;;;8.72;100.00
74633;BME280;63139;52.018;8.552;2023-11-21T12:01:24;100636.00;;;8.70;100.00
74633;BME280;63139;52.018;8.552;2023-11-21T12:04:23;100640.78;;;8.66;100.00
74633;BME280;63139;52.018;8.552;2023-11-21T12:07:01;100649.81;;;8.64;100.00
74633;BME280;63139;52.018;8.552;2023-11-21T12:09:33;100655.91;;;8.64;100.00
74633;BME280;63139;52.018;8.552;2023-11-21T12:12:02;100662.25;;;8.71;100.00
74633;BME280;63139;52.018;8.552;2023-11-21T12:14:31;100663.28;;;8.61;100.00
74633;BME280;63139;52.018;8.552;2023-11-21T12:16:59;100672.72;;;8.45;100.00
74633;BME280;63139;52.018;8.552;2023-11-21T12:19:29;100667.53;;;8.36;100.00
74633;BME280;63139;52.018;8.552;2023-11-21T12:21:57;100681.38;;;8.38;100.00
74633;BME280;63139;52.018;8.552;2023-11-21T12:24:28;100681.38;;;8.38;100.00
74633;BME280;63139;52.018;8.552;2023-11-21T12:26:56;100680.56;;;8.37;100.00
74633;BME280;63139;52.018;8.552;2023-11-21T12:29:24;100682.53;;;8.35;100.00
74633;BME280;63139;52.018;8.552;2023-11-21T12:31:52;100691.41;;;8.34;100.00
74633;BME280;63139;52.018;8.552;2023-11-21T12:34:20;100704.03;;;8.31;100.00
74633;BME280;63139;52.018;8.552;2023-11-21T12:36:48;100693.78;;;8.28;100.00
74633;BME280;63139;52.018;8.552;2023-11-21T12:39:16;100691.16;;;8.28;100.00
74633;BME280;63139;52.018;8.552;2023-11-21T12:41:45;100704.19;;;8.29;100.00
74633;BME280;63139;52.018;8.552;2023-11-21T12:44:13;100689.59;;;8.35;100.00
74633;BME280;63139;52.018;8.552;2023-11-21T12:46:42;100689.28;;;8.38;100.00
74633;BME280;63139;52.018;8.552;2023-11-21T12:49:12;100695.03;;;8.33;100.00
74633;BME280;63139;52.018;8.552;2023-11-21T12:51:45;100705.44;;;8.35;100.00
74633;BME280;63139;52.018;8.552;2023-11-21T12:54:13;100699.09;;;8.45;100.00
74633;BME280;63139;52.018;8.552;2023-11-21T12:56:46;100704.88;;;8.59;100.00
74633;BME280;63139;52.018;8.552;2023-11-21T12:59:15;100712.19;;;8.65;100.00
74633;BME280;63139;52.018;8.552;2023-11-21T13:01:45;100704.25;;;8.65;100.00